Portada
METAR-TAF:

METAR-TAF

Aeroports :

Lo Mont, França

latitud: 43-55N, longitud: 000-30W, altitud: 62 m

Observació

L'informe es va fer fa 29 minuts, a les 14:00 UTC
Vent 9 kt del Est, variant entre Est/Nord-Est i Sud-Est
Temperatura 14°C
Humitat 55%
Pressió 1014 hPa
Visibilitat 10 km o més
Cel cobert a una alçada de 4200 ft

METAR: LFBM 311400Z AUTO 10009KT 070V130 9999 OVC042 14/05 Q1014 NOSIG

Hora: 16:29 (14:29 UTC)

Pronòstic

L'informe es va fer fa 6 hores i 29 minuts, a les 08:00 UTC
Pronòstic vàlid del 31 a les 09 UTC al 01 a les 09 UTC
Vent 5 kt del Est/Nord-Est
Visibilitat 10 km o més
sense núvols per sota de 1500 mi sense presència de cumulonimbus.
Temporalment
l' 01 a les 01 UTC al 01 a les 07 UTC
Visibilitat: 3000 m
boirina

TAF: LFBM 310800Z 3109/0109 06005KT CAVOK TEMPO 0101/0107 3000 BR

Observacions i pronòstics meteorològics de més de 4000 aeroports (METAR i TAF).

Les estacions disponibles són els punts grocs i vermells al mapa.

Posi el ratolí al punt desitjat per veure el nom de l'estació.

Feu clic per veure les observacions i els pronòstics meteorològics.

Per canviar el mapa: feu clic els botons verds amb una creu de color negre per apropar; al botó verd amb un guió per allunyar la imatge; o en les fletxes verdes per a mapes adjacents.


METAR-TAF: